createdAt,value
2019-03-09T00:01:22.472Z,3.30
2019-03-09T00:03:52.117Z,3.58
2019-03-09T00:06:21.932Z,3.17
2019-03-09T00:08:54.574Z,4.17
2019-03-09T00:11:24.243Z,3.33
2019-03-09T00:13:53.871Z,2.30
2019-03-09T00:16:23.505Z,3.90
2019-03-09T00:18:57.738Z,2.22
2019-03-09T00:21:29.202Z,2.65
2019-03-09T00:24:23.458Z,1.80
2019-03-09T00:26:59.807Z,3.70
2019-03-09T00:29:54.049Z,2.92
2019-03-09T00:32:25.688Z,4.72
2019-03-09T00:35:04.425Z,1.80
2019-03-09T00:37:34.042Z,3.17
2019-03-09T00:40:04.094Z,1.70
2019-03-09T00:42:33.748Z,4.17
2019-03-09T00:45:03.467Z,2.22
2019-03-09T00:47:33.208Z,2.45
2019-03-09T00:50:02.910Z,2.12
2019-03-09T00:52:32.545Z,2.00
2019-03-09T00:55:02.184Z,2.33
2019-03-09T00:57:32.861Z,8.18
2019-03-09T01:00:02.483Z,4.00
2019-03-09T01:02:33.852Z,2.85
2019-03-09T01:05:03.614Z,3.40
2019-03-09T01:07:33.212Z,1.60
2019-03-09T01:10:02.859Z,1.85
2019-03-09T01:12:39.482Z,3.15
2019-03-09T01:15:09.610Z,2.52
2019-03-09T01:17:41.236Z,2.60
2019-03-09T01:20:13.058Z,2.70
2019-03-09T01:22:42.683Z,1.77
2019-03-09T01:25:12.404Z,3.92
2019-03-09T01:27:42.024Z,2.20
2019-03-09T01:30:14.838Z,11.73
2019-03-09T01:32:45.752Z,5.97
2019-03-09T01:35:15.430Z,2.60
2019-03-09T01:37:45.056Z,3.85
2019-03-09T01:40:15.480Z,1.85
2019-03-09T01:42:45.155Z,2.52
2019-03-09T01:45:15.132Z,2.10
2019-03-09T01:47:44.744Z,1.70
2019-03-09T01:50:14.958Z,4.22
2019-03-09T01:52:48.743Z,1.80
2019-03-09T01:55:18.374Z,3.15
2019-03-09T01:57:47.989Z,2.35
2019-03-09T02:00:18.188Z,1.80
2019-03-09T02:02:47.980Z,2.17
2019-03-09T02:05:17.693Z,6.87
2019-03-09T02:07:50.317Z,2.20
2019-03-09T02:10:19.956Z,1.80
2019-03-09T02:12:49.587Z,4.30
2019-03-09T02:15:19.222Z,2.15
2019-03-09T02:17:48.828Z,1.60
2019-03-09T02:20:24.596Z,1.65
2019-03-09T02:22:57.002Z,3.15
2019-03-09T02:25:26.630Z,4.10
2019-03-09T02:27:56.250Z,3.47
2019-03-09T02:30:25.874Z,1.90
2019-03-09T02:32:55.468Z,2.10
2019-03-09T02:35:25.081Z,2.92
2019-03-09T02:37:55.054Z,2.35
2019-03-09T02:40:25.574Z,1.82
2019-03-09T02:42:55.255Z,2.40
2019-03-09T02:45:27.661Z,2.45
2019-03-09T02:47:57.307Z,1.85
2019-03-09T02:50:27.019Z,7.55
2019-03-09T02:52:57.619Z,5.10
2019-03-09T02:55:27.253Z,2.35
2019-03-09T02:57:56.869Z,3.60
2019-03-09T03:00:28.205Z,3.90
2019-03-09T03:03:00.992Z,1.60
2019-03-09T03:05:35.028Z,5.80
2019-03-09T03:08:04.717Z,2.33
2019-03-09T03:10:35.942Z,1.70
2019-03-09T03:13:05.556Z,10.68
2019-03-09T03:15:36.194Z,1.82
2019-03-09T03:18:09.157Z,2.25
2019-03-09T03:20:40.374Z,1.80
2019-03-09T03:23:09.997Z,3.58
2019-03-09T03:25:39.943Z,6.17
2019-03-09T03:28:09.785Z,3.40
2019-03-09T03:30:39.559Z,2.22
2019-03-09T03:33:09.511Z,2.40
2019-03-09T03:35:39.138Z,4.95
2019-03-09T03:38:14.118Z,8.18
2019-03-09T03:40:45.586Z,6.50
2019-03-09T03:43:18.023Z,5.60
2019-03-09T03:45:47.628Z,7.05
2019-03-09T03:48:17.240Z,3.08
2019-03-09T03:50:46.887Z,4.65
2019-03-09T03:53:16.499Z,3.87
2019-03-09T03:55:51.224Z,4.83
2019-03-09T03:58:21.314Z,2.30
2019-03-09T04:00:51.181Z,2.00
2019-03-09T04:03:22.444Z,5.10
2019-03-09T04:05:52.216Z,1.70
2019-03-09T04:08:22.786Z,4.83
2019-03-09T04:10:55.691Z,1.90
2019-03-09T04:13:25.384Z,1.80
2019-03-09T04:15:56.621Z,3.90
2019-03-09T04:18:26.221Z,2.95
2019-03-09T04:20:55.837Z,2.30
2019-03-09T04:23:25.553Z,2.92
2019-03-09T04:25:55.231Z,3.77
2019-03-09T04:28:25.040Z,6.80
2019-03-09T04:30:57.499Z,2.80
2019-03-09T04:33:27.119Z,1.60
2019-03-09T04:35:56.729Z,5.22
2019-03-09T04:38:28.588Z,7.67
2019-03-09T04:40:58.209Z,2.00
2019-03-09T04:43:28.659Z,2.05
2019-03-09T04:45:58.288Z,2.35
2019-03-09T04:48:27.896Z,8.60
2019-03-09T04:50:57.516Z,6.37
2019-03-09T04:53:27.200Z,8.08
2019-03-09T04:55:56.816Z,2.40
2019-03-09T04:58:26.443Z,4.17
2019-03-09T05:00:56.052Z,2.02
2019-03-09T05:03:26.026Z,2.45
2019-03-09T05:06:16.528Z,2.92
2019-03-09T05:08:57.471Z,1.60
2019-03-09T05:11:30.250Z,2.75
2019-03-09T05:14:03.855Z,4.17
2019-03-09T05:16:35.626Z,3.15
2019-03-09T05:19:13.791Z,10.00
2019-03-09T05:21:43.454Z,3.60
2019-03-09T05:24:13.077Z,7.33
2019-03-09T05:26:42.691Z,2.65
2019-03-09T05:29:13.405Z,1.90
2019-03-09T05:31:45.764Z,2.90
2019-03-09T05:34:15.450Z,2.45
2019-03-09T05:36:45.086Z,4.05
2019-03-09T05:39:19.368Z,4.22
2019-03-09T05:41:48.980Z,3.30
2019-03-09T05:44:18.597Z,3.80
2019-03-09T05:46:48.201Z,2.17
2019-03-09T05:49:17.822Z,5.37
2019-03-09T05:52:24.831Z,4.90
2019-03-09T05:54:54.456Z,5.12
2019-03-09T05:57:25.252Z,6.00
2019-03-09T05:59:54.865Z,3.05
2019-03-09T06:02:24.480Z,2.05
2019-03-09T06:04:54.091Z,1.62
2019-03-09T06:07:25.392Z,2.25
2019-03-09T06:09:55.099Z,2.95
2019-03-09T06:12:24.711Z,12.43
2019-03-09T06:14:57.426Z,3.12
2019-03-09T06:17:27.109Z,3.45
2019-03-09T06:19:58.397Z,2.85
2019-03-09T06:22:28.099Z,2.58
2019-03-09T06:24:57.814Z,15.72
2019-03-09T06:27:27.451Z,2.80
2019-03-09T06:29:57.101Z,1.80
2019-03-09T06:33:03.058Z,2.05
2019-03-09T06:35:36.500Z,4.60
2019-03-09T06:38:30.588Z,2.02
2019-03-09T06:41:03.147Z,4.00
2019-03-09T06:43:32.550Z,9.58
2019-03-09T06:46:02.185Z,6.45
2019-03-09T06:48:34.287Z,5.22
2019-03-09T06:51:03.920Z,2.47
2019-03-09T06:53:33.558Z,3.05
2019-03-09T06:56:04.664Z,4.00
2019-03-09T06:58:34.290Z,4.25
2019-03-09T07:01:20.625Z,10.32
2019-03-09T07:03:50.508Z,4.22
2019-03-09T07:06:20.125Z,5.92
2019-03-09T07:08:52.326Z,4.03
2019-03-09T07:11:21.973Z,7.60
2019-03-09T07:13:53.154Z,3.25
2019-03-09T07:16:24.318Z,2.37
2019-03-09T07:18:53.949Z,1.90
2019-03-09T07:21:23.589Z,5.60
2019-03-09T07:23:53.845Z,5.65
2019-03-09T07:26:23.498Z,3.80
2019-03-09T07:28:53.159Z,3.35
2019-03-09T07:31:23.164Z,8.65
2019-03-09T07:34:21.774Z,3.65
2019-03-09T07:36:51.407Z,6.20
2019-03-09T07:39:21.352Z,7.40
2019-03-09T07:41:51.069Z,2.52
2019-03-09T07:44:22.224Z,6.00
2019-03-09T07:46:57.295Z,4.65
2019-03-09T07:49:26.896Z,5.03
2019-03-09T07:51:56.665Z,3.55
2019-03-09T07:54:26.302Z,4.30
2019-03-09T07:56:55.923Z,6.42
2019-03-09T07:59:25.583Z,2.87
2019-03-09T08:01:55.254Z,6.65
2019-03-09T08:04:27.712Z,5.03
2019-03-09T08:06:57.331Z,5.45
2019-03-09T08:09:26.964Z,5.30
2019-03-09T08:11:56.597Z,8.00
2019-03-09T08:14:26.221Z,3.92
2019-03-09T08:16:55.850Z,6.35
2019-03-09T08:19:25.573Z,5.10
2019-03-09T08:21:55.233Z,4.00
2019-03-09T08:24:24.874Z,3.35
2019-03-09T08:26:54.491Z,2.40
2019-03-09T08:29:24.121Z,2.98
2019-03-09T08:31:53.758Z,7.45
2019-03-09T08:34:23.386Z,2.47
2019-03-09T08:36:53.131Z,11.18
2019-03-09T08:39:23.221Z,7.15
2019-03-09T08:41:53.364Z,34.73
2019-03-09T08:44:23.121Z,101.33
2019-03-09T08:46:55.824Z,140.18
2019-03-09T08:49:25.508Z,192.82
2019-03-09T08:51:55.148Z,294.98
2019-03-09T08:54:24.849Z,341.05
2019-03-09T08:56:57.585Z,351.32
2019-03-09T08:59:27.256Z,312.45
2019-03-09T09:01:56.982Z,262.55
2019-03-09T09:04:26.601Z,275.55
2019-03-09T09:07:01.334Z,249.00
2019-03-09T09:09:34.833Z,234.15
2019-03-09T09:12:14.716Z,252.62
2019-03-09T09:14:45.186Z,222.63
2019-03-09T09:17:14.861Z,213.12
2019-03-09T09:19:44.573Z,205.30
2019-03-09T09:22:15.546Z,185.73
2019-03-09T09:24:45.283Z,215.60
2019-03-09T09:27:15.010Z,192.05
2019-03-09T09:29:44.899Z,199.75
2019-03-09T09:32:16.752Z,193.00
2019-03-09T09:34:48.727Z,247.20
2019-03-09T09:37:18.372Z,197.62
2019-03-09T09:39:48.111Z,178.53
2019-03-09T09:42:17.855Z,188.78
2019-03-09T09:44:47.498Z,176.27
2019-03-09T09:47:17.108Z,152.72
2019-03-09T09:49:48.328Z,143.40
2019-03-09T09:52:17.962Z,156.47
2019-03-09T09:54:47.607Z,153.00
2019-03-09T09:57:17.285Z,163.05
2019-03-09T09:59:47.157Z,179.87
2019-03-09T10:02:16.800Z,159.60
2019-03-09T10:04:47.543Z,126.02
2019-03-09T10:07:20.958Z,146.47
2019-03-09T10:09:50.604Z,137.37
2019-03-09T10:12:20.255Z,154.82
2019-03-09T10:14:50.198Z,126.60
2019-03-09T10:17:20.996Z,110.50
2019-03-09T10:19:50.648Z,137.92
2019-03-09T10:22:20.326Z,130.65
2019-03-09T10:24:49.975Z,104.23
2019-03-09T10:27:19.732Z,114.28
2019-03-09T10:29:49.356Z,119.02
2019-03-09T10:32:19.067Z,140.57
2019-03-09T10:34:51.852Z,109.97
2019-03-09T10:37:21.484Z,89.37
2019-03-09T10:39:51.115Z,105.95
2019-03-09T10:42:23.678Z,74.60
2019-03-09T10:44:53.310Z,94.28
2019-03-09T10:47:25.790Z,102.97
2019-03-09T10:49:55.417Z,72.45
2019-03-09T10:52:25.061Z,93.30
2019-03-09T10:54:54.702Z,104.90
2019-03-09T10:57:24.330Z,86.10
2019-03-09T10:59:56.865Z,74.60
2019-03-09T11:02:26.554Z,57.48
2019-03-09T11:04:56.200Z,84.95
2019-03-09T11:07:26.192Z,72.67
2019-03-09T11:10:01.944Z,76.17
2019-03-09T11:12:31.612Z,76.47
2019-03-09T11:15:01.233Z,81.60
2019-03-09T11:17:30.937Z,65.17
2019-03-09T11:20:07.370Z,65.28
2019-03-09T11:22:38.907Z,71.15
2019-03-09T11:25:09.082Z,60.60
2019-03-09T11:27:39.994Z,83.90
2019-03-09T11:30:15.492Z,73.67
2019-03-09T11:32:45.115Z,67.90
2019-03-09T11:35:14.730Z,59.85
2019-03-09T11:37:44.384Z,80.60
2019-03-09T11:40:17.031Z,92.50
2019-03-09T11:42:46.650Z,42.67
2019-03-09T11:45:17.514Z,54.90
2019-03-09T11:47:48.117Z,53.52
2019-03-09T11:50:17.892Z,48.87
2019-03-09T11:52:47.594Z,47.73
2019-03-09T11:55:17.409Z,72.32
2019-03-09T11:57:47.103Z,64.45
2019-03-09T12:00:24.042Z,45.80
2019-03-09T12:03:01.308Z,60.98
2019-03-09T12:05:30.977Z,44.93
2019-03-09T12:08:00.651Z,41.37
2019-03-09T12:10:30.441Z,44.95
2019-03-09T12:13:00.098Z,49.23
2019-03-09T12:15:33.958Z,50.55
2019-03-09T12:18:03.614Z,43.35
2019-03-09T12:20:33.296Z,38.35
2019-03-09T12:23:20.474Z,46.65
2019-03-09T12:25:50.274Z,40.45
2019-03-09T12:28:19.972Z,51.92
2019-03-09T12:30:49.596Z,34.00
2019-03-09T12:33:19.304Z,50.48
2019-03-09T12:35:48.926Z,47.78
2019-03-09T12:38:18.554Z,37.53
2019-03-09T12:40:48.176Z,31.37
2019-03-09T12:43:20.338Z,38.78
2019-03-09T12:45:50.001Z,46.55
2019-03-09T12:48:20.784Z,42.78
2019-03-09T12:50:50.491Z,32.83
2019-03-09T12:53:20.111Z,36.42
2019-03-09T12:55:49.734Z,38.75
2019-03-09T12:58:19.386Z,30.05
2019-03-09T13:00:49.018Z,24.12
2019-03-09T13:03:18.892Z,43.98
2019-03-09T13:05:48.660Z,28.62
2019-03-09T13:08:19.541Z,22.00
2019-03-09T13:10:49.167Z,30.90
2019-03-09T13:13:18.893Z,36.23
2019-03-09T13:15:51.143Z,34.50
2019-03-09T13:18:20.830Z,41.65
2019-03-09T13:20:50.686Z,32.00
2019-03-09T13:23:24.388Z,30.88
2019-03-09T13:25:54.060Z,31.85
2019-03-09T13:28:23.679Z,15.65
2019-03-09T13:30:55.624Z,23.42
2019-03-09T13:33:25.321Z,25.10
2019-03-09T13:35:54.940Z,20.82
2019-03-09T13:38:24.575Z,37.13
2019-03-09T13:40:59.136Z,30.92
2019-03-09T13:43:40.611Z,32.65
2019-03-09T13:46:13.034Z,28.92
2019-03-09T13:48:42.659Z,20.80
2019-03-09T13:51:12.590Z,25.10
2019-03-09T13:53:42.227Z,16.20
2019-03-09T13:56:11.862Z,27.27
2019-03-09T13:58:41.560Z,16.00
2019-03-09T14:01:14.214Z,29.15
2019-03-09T14:03:51.485Z,14.00
2019-03-09T14:06:22.095Z,13.08
2019-03-09T14:08:51.807Z,28.80
2019-03-09T14:11:21.487Z,24.85
2019-03-09T14:13:55.749Z,32.25
2019-03-09T14:16:25.427Z,31.37
2019-03-09T14:18:55.040Z,20.20
2019-03-09T14:21:24.684Z,15.70
2019-03-09T14:24:00.069Z,13.62
2019-03-09T14:26:29.993Z,19.15
2019-03-09T14:28:59.616Z,17.12
2019-03-09T14:31:29.254Z,17.02
2019-03-09T14:34:00.699Z,14.75
2019-03-09T14:36:30.384Z,18.50
2019-03-09T14:39:00.220Z,17.67
2019-03-09T14:41:30.101Z,19.32
2019-03-09T14:43:59.853Z,13.50
2019-03-09T14:46:29.551Z,10.85
2019-03-09T14:48:59.189Z,17.12
2019-03-09T14:51:28.832Z,13.93
2019-03-09T14:53:58.448Z,10.75
2019-03-09T14:56:28.136Z,16.55
2019-03-09T14:58:57.866Z,15.35
2019-03-09T15:01:27.492Z,20.43
2019-03-09T15:03:57.158Z,9.13
2019-03-09T15:06:26.772Z,12.55
2019-03-09T15:09:00.769Z,12.03
2019-03-09T15:11:32.091Z,8.68
2019-03-09T15:14:01.704Z,14.15
2019-03-09T15:16:36.960Z,9.25
2019-03-09T15:19:07.022Z,9.18
2019-03-09T15:21:36.662Z,12.90
2019-03-09T15:24:06.280Z,9.50
2019-03-09T15:26:36.004Z,12.82
2019-03-09T15:29:05.751Z,15.35
2019-03-09T15:31:35.378Z,11.68
2019-03-09T15:34:05.128Z,17.27
2019-03-09T15:36:34.754Z,12.33
2019-03-09T15:39:08.368Z,9.20
2019-03-09T15:41:39.638Z,8.25
2019-03-09T15:44:09.322Z,9.85
2019-03-09T15:46:38.976Z,12.45
2019-03-09T15:49:08.850Z,8.73
2019-03-09T15:51:38.472Z,7.10
2019-03-09T15:54:08.103Z,9.13
2019-03-09T15:56:37.732Z,10.63
2019-03-09T15:59:09.804Z,12.80
2019-03-09T16:01:44.686Z,14.15
2019-03-09T16:04:14.355Z,14.30
2019-03-09T16:06:43.987Z,3.65
2019-03-09T16:09:13.860Z,6.85
2019-03-09T16:11:45.332Z,5.60
2019-03-09T16:14:14.961Z,8.38
2019-03-09T16:16:44.671Z,9.05
2019-03-09T16:19:14.351Z,9.00
2019-03-09T16:21:43.999Z,10.78
2019-03-09T16:24:15.838Z,10.65
2019-03-09T16:26:45.492Z,6.70
2019-03-09T16:29:15.139Z,11.00
2019-03-09T16:31:44.773Z,6.03
2019-03-09T16:34:14.482Z,4.20
2019-03-09T16:36:44.106Z,7.70
2019-03-09T16:39:13.740Z,5.53
2019-03-09T16:41:43.375Z,7.03
2019-03-09T16:44:13.056Z,5.22
2019-03-09T16:46:42.680Z,6.37
2019-03-09T16:49:12.303Z,4.20
2019-03-09T16:51:42.146Z,7.95
2019-03-09T16:54:16.933Z,6.70
2019-03-09T16:56:46.567Z,7.03
2019-03-09T16:59:16.190Z,6.50
2019-03-09T17:01:50.508Z,9.73
2019-03-09T17:04:19.840Z,7.72
2019-03-09T17:06:49.471Z,5.92
2019-03-09T17:09:19.098Z,6.50
2019-03-09T17:11:48.708Z,12.30
2019-03-09T17:14:23.521Z,3.55
2019-03-09T17:16:53.144Z,13.40
2019-03-09T17:19:22.791Z,5.70
2019-03-09T17:21:52.422Z,5.20
2019-03-09T17:24:22.080Z,5.85
2019-03-09T17:26:51.718Z,7.22
2019-03-09T17:29:21.347Z,10.75
2019-03-09T17:31:50.978Z,10.13
2019-03-09T17:34:23.554Z,5.15
2019-03-09T17:36:53.171Z,6.42
2019-03-09T17:39:22.785Z,10.10
2019-03-09T17:41:55.518Z,14.07
2019-03-09T17:44:25.147Z,8.08
2019-03-09T17:46:54.804Z,8.48
2019-03-09T17:49:24.443Z,7.42
2019-03-09T17:51:54.077Z,3.55
2019-03-09T17:54:23.694Z,4.92
2019-03-09T17:56:53.319Z,8.95
2019-03-09T17:59:22.924Z,8.88
2019-03-09T18:01:52.587Z,6.42
2019-03-09T18:04:27.375Z,10.30
2019-03-09T18:06:57.004Z,10.45
2019-03-09T18:09:26.633Z,8.65
2019-03-09T18:11:56.239Z,5.42
2019-03-09T18:14:28.383Z,9.20
2019-03-09T18:16:58.005Z,12.35
2019-03-09T18:19:27.710Z,11.70
2019-03-09T18:21:58.611Z,5.72
2019-03-09T18:24:29.348Z,3.77
2019-03-09T18:26:58.945Z,4.20
2019-03-09T18:29:28.566Z,6.05
2019-03-09T18:31:58.185Z,7.72
2019-03-09T18:34:27.818Z,4.65
2019-03-09T18:36:57.459Z,3.17
2019-03-09T18:39:27.086Z,13.05
2019-03-09T18:41:56.782Z,7.83
2019-03-09T18:44:29.280Z,8.58
2019-03-09T18:46:58.898Z,7.33
2019-03-09T18:49:30.142Z,3.37
2019-03-09T18:51:59.774Z,6.25
2019-03-09T18:54:31.312Z,4.62
2019-03-09T18:57:01.999Z,7.80
2019-03-09T18:59:31.603Z,4.53
2019-03-09T19:02:01.220Z,7.10
2019-03-09T19:04:30.921Z,6.03
2019-03-09T19:07:00.544Z,5.62
2019-03-09T19:09:30.147Z,6.03
2019-03-09T19:11:59.770Z,8.10
2019-03-09T19:14:29.406Z,5.95
2019-03-09T19:16:59.096Z,6.03
2019-03-09T19:19:30.332Z,3.65
2019-03-09T19:21:59.951Z,7.80
2019-03-09T19:24:31.474Z,5.53
2019-03-09T19:27:02.372Z,10.72
2019-03-09T19:29:31.989Z,6.10
2019-03-09T19:32:04.846Z,5.90
2019-03-09T19:34:34.508Z,9.65
2019-03-09T19:37:04.119Z,5.40
2019-03-09T19:39:33.732Z,6.45
2019-03-09T19:42:05.139Z,6.28
2019-03-09T19:44:36.375Z,4.70
2019-03-09T19:47:06.070Z,3.65
2019-03-09T19:49:35.743Z,5.67
2019-03-09T19:52:05.372Z,3.00
2019-03-09T19:54:35.016Z,10.68
2019-03-09T19:57:04.764Z,5.08
2019-03-09T19:59:35.349Z,12.55
2019-03-09T20:02:06.682Z,10.10
2019-03-09T20:04:36.322Z,5.10
2019-03-09T20:07:06.090Z,6.85
2019-03-09T20:09:41.350Z,5.58
2019-03-09T20:12:10.982Z,12.93
2019-03-09T20:14:40.618Z,3.72
2019-03-09T20:17:11.336Z,3.98
2019-03-09T20:19:41.051Z,7.72
2019-03-09T20:22:19.122Z,8.38
2019-03-09T20:24:48.910Z,5.12
2019-03-09T20:27:18.535Z,6.85
2019-03-09T20:29:48.148Z,5.00
2019-03-09T20:32:17.851Z,4.40
2019-03-09T20:34:47.525Z,6.78
2019-03-09T20:37:17.181Z,3.27
2019-03-09T20:39:54.472Z,4.08
2019-03-09T20:42:24.104Z,10.63
2019-03-09T20:44:56.389Z,6.33
2019-03-09T20:47:26.021Z,5.60
2019-03-09T20:49:55.690Z,4.85
2019-03-09T20:52:25.349Z,5.25
2019-03-09T20:54:55.003Z,5.08
2019-03-09T20:57:24.682Z,3.70
2019-03-09T20:59:54.398Z,6.00
2019-03-09T21:02:24.110Z,6.87
2019-03-09T21:04:53.848Z,5.03
2019-03-09T21:07:23.662Z,9.38
2019-03-09T21:09:53.653Z,3.17
2019-03-09T21:12:23.280Z,3.90
2019-03-09T21:14:52.943Z,8.18
2019-03-09T21:17:22.571Z,6.47
2019-03-09T21:19:52.270Z,5.62
2019-03-09T21:22:21.925Z,7.72
2019-03-09T21:24:52.899Z,7.40
2019-03-09T21:27:27.990Z,8.00
2019-03-09T21:29:57.619Z,14.20
2019-03-09T21:32:29.050Z,3.65
2019-03-09T21:34:58.756Z,4.90
2019-03-09T21:37:28.383Z,9.83
2019-03-09T21:39:58.029Z,4.33
2019-03-09T21:42:27.642Z,6.58
2019-03-09T21:44:59.074Z,6.35
2019-03-09T21:47:28.695Z,3.15
2019-03-09T21:50:09.028Z,3.87
2019-03-09T21:52:38.739Z,7.58
2019-03-09T21:55:14.419Z,3.20
2019-03-09T21:57:45.074Z,4.85
2019-03-09T22:00:14.890Z,8.58
2019-03-09T22:02:44.659Z,3.65
2019-03-09T22:05:14.365Z,6.03
2019-03-09T22:07:44.025Z,3.10
2019-03-09T22:10:13.738Z,21.00
2019-03-09T22:12:43.499Z,5.95
2019-03-09T22:15:13.241Z,4.97
2019-03-09T22:17:42.862Z,2.65
2019-03-09T22:20:12.666Z,6.28
2019-03-09T22:22:42.480Z,10.55
2019-03-09T22:25:12.194Z,3.17
2019-03-09T22:27:45.091Z,4.55
2019-03-09T22:30:14.851Z,2.20
2019-03-09T22:32:44.568Z,6.53
2019-03-09T22:35:14.473Z,6.10
2019-03-09T22:37:44.105Z,17.73
2019-03-09T22:40:16.765Z,5.15
2019-03-09T22:42:46.417Z,2.87
2019-03-09T22:45:16.191Z,5.35
2019-03-09T22:47:45.839Z,6.92
2019-03-09T22:50:15.864Z,2.45
2019-03-09T22:52:46.448Z,2.95
2019-03-09T22:55:16.138Z,3.25
2019-03-09T22:57:47.348Z,3.65
2019-03-09T23:00:17.900Z,9.05
2019-03-09T23:02:49.250Z,8.13
2019-03-09T23:05:19.066Z,14.75
2019-03-09T23:07:53.184Z,4.53
2019-03-09T23:10:23.026Z,7.00
2019-03-09T23:12:52.762Z,6.65
2019-03-09T23:15:25.561Z,2.15
2019-03-09T23:17:55.244Z,3.08
2019-03-09T23:20:24.875Z,7.65
2019-03-09T23:22:54.502Z,4.78
2019-03-09T23:25:24.274Z,6.42
2019-03-09T23:27:55.187Z,7.45
2019-03-09T23:30:24.940Z,4.65
2019-03-09T23:32:54.717Z,5.53
2019-03-09T23:35:24.466Z,3.90
2019-03-09T23:37:54.111Z,5.20
2019-03-09T23:40:23.892Z,4.28
2019-03-09T23:42:53.787Z,2.27
2019-03-09T23:45:23.571Z,4.55
2019-03-09T23:47:53.375Z,6.75
2019-03-09T23:50:23.240Z,3.35
2019-03-09T23:52:54.292Z,5.55
2019-03-09T23:55:24.934Z,7.87
2019-03-09T23:57:56.171Z,5.58
